sensor_id;sensor_type;location;lat;lon;timestamp;pressure;altitude;pressure_sealevel;temperature;humidity
74615;BME280;63121;51.458;-0.110;2023-05-10T00:01:45;100871.00;;;17.24;60.58
74615;BME280;63121;51.458;-0.110;2023-05-10T00:04:11;100885.50;;;17.08;61.07
74615;BME280;63121;51.458;-0.110;2023-05-10T00:06:36;100877.94;;;17.00;61.41
74615;BME280;63121;51.458;-0.110;2023-05-10T00:09:01;100879.28;;;17.12;61.34
74615;BME280;63121;51.458;-0.110;2023-05-10T00:11:27;100887.59;;;17.22;60.80
74615;BME280;63121;51.458;-0.110;2023-05-10T00:13:52;100883.13;;;17.02;61.19
74615;BME280;63121;51.458;-0.110;2023-05-10T00:16:17;100889.66;;;16.89;62.28
74615;BME280;63121;51.458;-0.110;2023-05-10T00:18:43;100890.19;;;16.72;62.77
74615;BME280;63121;51.458;-0.110;2023-05-10T00:21:08;100888.91;;;16.58;63.36
74615;BME280;63121;51.458;-0.110;2023-05-10T00:23:33;100891.09;;;16.97;61.97
74615;BME280;63121;51.458;-0.110;2023-05-10T00:25:59;100894.66;;;16.95;61.65
74615;BME280;63121;51.458;-0.110;2023-05-10T00:28:24;100892.94;;;17.19;61.34
74615;BME280;63121;51.458;-0.110;2023-05-10T00:30:49;100900.16;;;17.12;60.94
74615;BME280;63121;51.458;-0.110;2023-05-10T00:33:15;100893.13;;;16.89;62.36
74615;BME280;63121;51.458;-0.110;2023-05-10T00:35:40;100904.56;;;17.10;61.72
74615;BME280;63121;51.458;-0.110;2023-05-10T00:38:06;100894.31;;;17.05;62.06
74615;BME280;63121;51.458;-0.110;2023-05-10T00:40:31;100896.56;;;16.90;62.38
74615;BME280;63121;51.458;-0.110;2023-05-10T00:42:57;100893.56;;;17.25;61.72
74615;BME280;63121;51.458;-0.110;2023-05-10T00:45:23;100899.25;;;16.61;63.55
74615;BME280;63121;51.458;-0.110;2023-05-10T00:47:48;100903.09;;;17.26;61.55
74615;BME280;63121;51.458;-0.110;2023-05-10T00:50:14;100900.16;;;17.12;62.42
74615;BME280;63121;51.458;-0.110;2023-05-10T00:52:41;100895.78;;;17.36;61.61
74615;BME280;63121;51.458;-0.110;2023-05-10T00:55:07;100903.91;;;16.78;63.17
74615;BME280;63121;51.458;-0.110;2023-05-10T00:57:33;100898.06;;;16.97;62.64
74615;BME280;63121;51.458;-0.110;2023-05-10T00:59:59;100896.16;;;17.02;62.88
74615;BME280;63121;51.458;-0.110;2023-05-10T01:02:24;100902.16;;;17.04;62.69
74615;BME280;63121;51.458;-0.110;2023-05-10T01:04:50;100908.00;;;16.59;63.96
74615;BME280;63121;51.458;-0.110;2023-05-10T01:07:16;100901.97;;;16.85;63.02
74615;BME280;63121;51.458;-0.110;2023-05-10T01:09:42;100906.38;;;16.83;63.16
74615;BME280;63121;51.458;-0.110;2023-05-10T01:12:07;100907.34;;;16.80;63.31
74615;BME280;63121;51.458;-0.110;2023-05-10T01:14:33;100912.78;;;16.99;63.01
74615;BME280;63121;51.458;-0.110;2023-05-10T01:17:00;100911.94;;;16.44;64.19
74615;BME280;63121;51.458;-0.110;2023-05-10T01:19:27;100917.78;;;16.52;64.35
74615;BME280;63121;51.458;-0.110;2023-05-10T01:22:13;100907.19;;;16.57;64.39
74615;BME280;63121;51.458;-0.110;2023-05-10T01:33:27;100923.13;;;17.26;62.30
74615;BME280;63121;51.458;-0.110;2023-05-10T01:36:03;100920.59;;;17.24;62.05
74615;BME280;63121;51.458;-0.110;2023-05-10T01:38:42;100922.34;;;16.72;64.24
74615;BME280;63121;51.458;-0.110;2023-05-10T01:41:24;100924.72;;;16.53;64.92
74615;BME280;63121;51.458;-0.110;2023-05-10T01:43:57;100923.97;;;16.48;65.12
74615;BME280;63121;51.458;-0.110;2023-05-10T01:46:35;100925.91;;;16.43;64.98
74615;BME280;63121;51.458;-0.110;2023-05-10T01:49:03;100926.41;;;16.54;64.45
74615;BME280;63121;51.458;-0.110;2023-05-10T01:51:47;100928.09;;;17.09;62.77
74615;BME280;63121;51.458;-0.110;2023-05-10T01:54:17;100924.25;;;17.19;62.61
74615;BME280;63121;51.458;-0.110;2023-05-10T01:56:45;100932.47;;;16.81;63.64
74615;BME280;63121;51.458;-0.110;2023-05-10T01:59:15;100933.59;;;16.19;65.42
74615;BME280;63121;51.458;-0.110;2023-05-10T02:01:42;100931.78;;;16.21;65.53
74615;BME280;63121;51.458;-0.110;2023-05-10T02:04:11;100936.91;;;16.78;63.51
74615;BME280;63121;51.458;-0.110;2023-05-10T02:06:40;100928.72;;;16.63;63.92
74615;BME280;63121;51.458;-0.110;2023-05-10T02:09:09;100934.00;;;16.60;63.93
74615;BME280;63121;51.458;-0.110;2023-05-10T02:11:37;100932.41;;;16.84;63.73
74615;BME280;63121;51.458;-0.110;2023-05-10T02:14:06;100935.91;;;17.09;62.40
74615;BME280;63121;51.458;-0.110;2023-05-10T02:16:34;100943.56;;;16.88;62.86
74615;BME280;63121;51.458;-0.110;2023-05-10T02:19:01;100936.81;;;16.82;63.20
74615;BME280;63121;51.458;-0.110;2023-05-10T02:21:28;100935.81;;;16.86;63.00
74615;BME280;63121;51.458;-0.110;2023-05-10T02:23:55;100948.03;;;16.84;63.14
74615;BME280;63121;51.458;-0.110;2023-05-10T02:26:23;100950.09;;;16.73;63.23
74615;BME280;63121;51.458;-0.110;2023-05-10T02:28:50;100952.22;;;16.89;62.87
74615;BME280;63121;51.458;-0.110;2023-05-10T02:31:17;100957.50;;;16.32;64.82
74615;BME280;63121;51.458;-0.110;2023-05-10T02:33:44;100954.44;;;16.74;63.43
74615;BME280;63121;51.458;-0.110;2023-05-10T02:36:12;100953.91;;;16.63;64.10
74615;BME280;63121;51.458;-0.110;2023-05-10T02:38:38;100961.75;;;16.90;63.01
74615;BME280;63121;51.458;-0.110;2023-05-10T02:41:05;100963.75;;;17.08;62.30
74615;BME280;63121;51.458;-0.110;2023-05-10T02:43:33;100962.16;;;17.04;62.27
74615;BME280;63121;51.458;-0.110;2023-05-10T02:45:59;100972.50;;;16.80;63.29
74615;BME280;63121;51.458;-0.110;2023-05-10T02:48:24;100971.81;;;16.74;63.46
74615;BME280;63121;51.458;-0.110;2023-05-10T02:50:51;100969.81;;;17.09;62.57
74615;BME280;63121;51.458;-0.110;2023-05-10T02:53:38;100982.00;;;17.08;62.42
74615;BME280;63121;51.458;-0.110;2023-05-10T02:56:12;100977.09;;;16.99;62.39
74615;BME280;63121;51.458;-0.110;2023-05-10T02:58:38;100980.03;;;16.90;62.88
74615;BME280;63121;51.458;-0.110;2023-05-10T03:01:04;100976.25;;;17.23;61.63
74615;BME280;63121;51.458;-0.110;2023-05-10T03:03:29;100981.94;;;17.10;61.88
74615;BME280;63121;51.458;-0.110;2023-05-10T03:05:55;100984.94;;;16.71;63.11
74615;BME280;63121;51.458;-0.110;2023-05-10T03:08:22;100977.53;;;16.86;63.13
74615;BME280;63121;51.458;-0.110;2023-05-10T03:10:59;100979.81;;;16.96;62.70
74615;BME280;63121;51.458;-0.110;2023-05-10T03:13:39;100980.56;;;16.99;62.43
74615;BME280;63121;51.458;-0.110;2023-05-10T03:16:12;100981.66;;;16.92;62.62
74615;BME280;63121;51.458;-0.110;2023-05-10T03:19:01;100986.63;;;17.00;62.49
74615;BME280;63121;51.458;-0.110;2023-05-10T03:21:31;100977.25;;;16.94;62.52
74615;BME280;63121;51.458;-0.110;2023-05-10T03:24:01;100982.78;;;16.85;62.81
74615;BME280;63121;51.458;-0.110;2023-05-10T03:26:30;100985.63;;;17.04;61.96
74615;BME280;63121;51.458;-0.110;2023-05-10T03:28:57;100982.94;;;16.80;62.64
74615;BME280;63121;51.458;-0.110;2023-05-10T03:31:24;100976.63;;;17.13;61.96
74615;BME280;63121;51.458;-0.110;2023-05-10T03:33:51;100980.91;;;16.89;62.46
74615;BME280;63121;51.458;-0.110;2023-05-10T03:36:18;100980.22;;;17.10;61.95
74615;BME280;63121;51.458;-0.110;2023-05-10T03:38:43;100978.59;;;17.06;62.10
74615;BME280;63121;51.458;-0.110;2023-05-10T03:41:08;100984.78;;;17.03;62.03
74615;BME280;63121;51.458;-0.110;2023-05-10T03:43:34;100983.88;;;17.04;62.00
74615;BME280;63121;51.458;-0.110;2023-05-10T03:46:02;100983.81;;;17.06;61.45
74615;BME280;63121;51.458;-0.110;2023-05-10T03:48:27;100995.50;;;16.67;62.82
74615;BME280;63121;51.458;-0.110;2023-05-10T03:50:52;100993.94;;;16.89;62.55
74615;BME280;63121;51.458;-0.110;2023-05-10T03:53:18;100992.06;;;16.94;62.30
74615;BME280;63121;51.458;-0.110;2023-05-10T03:55:43;100998.28;;;16.90;62.27
74615;BME280;63121;51.458;-0.110;2023-05-10T03:58:11;101003.84;;;16.77;62.73
74615;BME280;63121;51.458;-0.110;2023-05-10T04:00:36;101006.53;;;16.48;63.58
74615;BME280;63121;51.458;-0.110;2023-05-10T04:03:02;101006.19;;;16.58;63.28
74615;BME280;63121;51.458;-0.110;2023-05-10T04:05:27;101000.59;;;16.71;62.70
74615;BME280;63121;51.458;-0.110;2023-05-10T04:07:52;101002.31;;;16.43;63.64
74615;BME280;63121;51.458;-0.110;2023-05-10T04:10:18;101004.44;;;16.59;63.11
74615;BME280;63121;51.458;-0.110;2023-05-10T04:12:43;101004.59;;;16.26;64.08
74615;BME280;63121;51.458;-0.110;2023-05-10T04:15:09;101006.53;;;16.48;63.06
74615;BME280;63121;51.458;-0.110;2023-05-10T04:17:34;101002.41;;;16.40;63.19
74615;BME280;63121;51.458;-0.110;2023-05-10T04:20:00;101014.22;;;16.22;63.90
74615;BME280;63121;51.458;-0.110;2023-05-10T04:22:25;101015.56;;;16.36;63.29
74615;BME280;63121;51.458;-0.110;2023-05-10T04:24:50;101010.75;;;16.23;63.87
74615;BME280;63121;51.458;-0.110;2023-05-10T04:27:16;101020.94;;;16.00;64.62
74615;BME280;63121;51.458;-0.110;2023-05-10T04:29:41;101020.69;;;15.79;64.89
74615;BME280;63121;51.458;-0.110;2023-05-10T04:32:07;101016.97;;;15.88;64.82
74615;BME280;63121;51.458;-0.110;2023-05-10T04:34:33;101024.03;;;15.50;66.17
74615;BME280;63121;51.458;-0.110;2023-05-10T04:36:59;101026.56;;;15.53;65.73
74615;BME280;63121;51.458;-0.110;2023-05-10T04:39:24;101022.06;;;15.91;64.70
74615;BME280;63121;51.458;-0.110;2023-05-10T04:41:49;101024.59;;;15.61;65.01
74615;BME280;63121;51.458;-0.110;2023-05-10T04:44:15;101032.03;;;15.42;65.57
74615;BME280;63121;51.458;-0.110;2023-05-10T04:46:40;101033.56;;;15.84;63.79
74615;BME280;63121;51.458;-0.110;2023-05-10T04:49:05;101028.91;;;15.30;66.02
74615;BME280;63121;51.458;-0.110;2023-05-10T04:51:31;101037.94;;;15.16;66.51
74615;BME280;63121;51.458;-0.110;2023-05-10T04:53:57;101042.06;;;15.23;66.62
74615;BME280;63121;51.458;-0.110;2023-05-10T04:56:22;101037.69;;;14.90;67.67
74615;BME280;63121;51.458;-0.110;2023-05-10T04:58:47;101045.09;;;15.41;66.14
74615;BME280;63121;51.458;-0.110;2023-05-10T05:01:13;101046.84;;;15.40;65.72
74615;BME280;63121;51.458;-0.110;2023-05-10T05:03:38;101047.19;;;15.61;64.96
74615;BME280;63121;51.458;-0.110;2023-05-10T05:06:03;101057.25;;;15.40;65.73
74615;BME280;63121;51.458;-0.110;2023-05-10T05:08:29;101060.00;;;14.98;66.78
74615;BME280;63121;51.458;-0.110;2023-05-10T05:10:54;101060.69;;;14.69;68.24
74615;BME280;63121;51.458;-0.110;2023-05-10T05:13:20;101063.97;;;14.77;67.53
74615;BME280;63121;51.458;-0.110;2023-05-10T05:15:45;101072.94;;;15.37;65.32
74615;BME280;63121;51.458;-0.110;2023-05-10T05:18:10;101077.06;;;15.46;65.25
74615;BME280;63121;51.458;-0.110;2023-05-10T05:20:36;101076.31;;;15.05;66.00
74615;BME280;63121;51.458;-0.110;2023-05-10T05:23:01;101074.66;;;15.02;66.45
74615;BME280;63121;51.458;-0.110;2023-05-10T05:25:27;101079.13;;;15.33;66.10
74615;BME280;63121;51.458;-0.110;2023-05-10T05:27:52;101084.78;;;15.83;64.21
74615;BME280;63121;51.458;-0.110;2023-05-10T05:30:17;101082.56;;;15.34;65.68
74615;BME280;63121;51.458;-0.110;2023-05-10T05:32:43;101086.66;;;15.44;65.28
74615;BME280;63121;51.458;-0.110;2023-05-10T05:35:08;101091.97;;;15.39;65.31
74615;BME280;63121;51.458;-0.110;2023-05-10T05:37:34;101091.06;;;15.40;65.36
74615;BME280;63121;51.458;-0.110;2023-05-10T05:40:00;101086.53;;;15.13;65.50
74615;BME280;63121;51.458;-0.110;2023-05-10T05:42:27;101098.50;;;15.20;65.85
74615;BME280;63121;51.458;-0.110;2023-05-10T05:44:52;101096.09;;;14.75;66.87
74615;BME280;63121;51.458;-0.110;2023-05-10T05:47:17;101096.88;;;14.78;66.27
74615;BME280;63121;51.458;-0.110;2023-05-10T05:49:43;101093.28;;;15.20;64.97
74615;BME280;63121;51.458;-0.110;2023-05-10T05:52:10;101094.47;;;15.08;65.80
74615;BME280;63121;51.458;-0.110;2023-05-10T05:54:36;101093.06;;;15.31;64.61
74615;BME280;63121;51.458;-0.110;2023-05-10T05:57:01;101100.50;;;15.79;63.16
74615;BME280;63121;51.458;-0.110;2023-05-10T05:59:27;101100.03;;;15.29;64.46
74615;BME280;63121;51.458;-0.110;2023-05-10T06:01:52;101097.44;;;15.96;63.32
74615;BME280;63121;51.458;-0.110;2023-05-10T06:04:18;101115.63;;;15.64;63.75
74615;BME280;63121;51.458;-0.110;2023-05-10T06:06:44;101111.38;;;16.26;62.03
74615;BME280;63121;51.458;-0.110;2023-05-10T06:09:10;101113.81;;;16.01;62.50
74615;BME280;63121;51.458;-0.110;2023-05-10T06:11:36;101112.50;;;16.17;61.43
74615;BME280;63121;51.458;-0.110;2023-05-10T06:14:02;101121.91;;;15.90;62.69
74615;BME280;63121;51.458;-0.110;2023-05-10T06:16:29;101121.09;;;15.88;62.41
74615;BME280;63121;51.458;-0.110;2023-05-10T06:18:55;101116.56;;;15.96;62.06
74615;BME280;63121;51.458;-0.110;2023-05-10T06:21:20;101115.22;;;15.81;62.15
74615;BME280;63121;51.458;-0.110;2023-05-10T06:23:46;101122.34;;;15.75;62.57
74615;BME280;63121;51.458;-0.110;2023-05-10T06:26:11;101115.41;;;15.74;62.73
74615;BME280;63121;51.458;-0.110;2023-05-10T06:28:37;101130.16;;;16.06;62.21
74615;BME280;63121;51.458;-0.110;2023-05-10T06:31:05;101119.59;;;16.42;60.87
74615;BME280;63121;51.458;-0.110;2023-05-10T06:33:31;101125.94;;;16.63;60.21
74615;BME280;63121;51.458;-0.110;2023-05-10T06:35:56;101136.31;;;16.64;59.97
74615;BME280;63121;51.458;-0.110;2023-05-10T06:38:22;101133.91;;;16.27;60.29
74615;BME280;63121;51.458;-0.110;2023-05-10T06:40:48;101137.34;;;16.29;60.61
74615;BME280;63121;51.458;-0.110;2023-05-10T06:43:13;101138.53;;;16.49;60.07
74615;BME280;63121;51.458;-0.110;2023-05-10T06:45:39;101132.81;;;16.04;60.87
74615;BME280;63121;51.458;-0.110;2023-05-10T06:48:06;101130.66;;;15.88;61.87
74615;BME280;63121;51.458;-0.110;2023-05-10T06:50:31;101129.69;;;16.84;59.32
74615;BME280;63121;51.458;-0.110;2023-05-10T06:52:57;101132.69;;;16.70;59.16
74615;BME280;63121;51.458;-0.110;2023-05-10T06:55:23;101132.88;;;16.34;59.97
74615;BME280;63121;51.458;-0.110;2023-05-10T06:57:48;101128.81;;;16.54;59.97
74615;BME280;63121;51.458;-0.110;2023-05-10T07:00:14;101134.94;;;17.11;58.20
74615;BME280;63121;51.458;-0.110;2023-05-10T07:02:39;101132.00;;;17.21;57.53
74615;BME280;63121;51.458;-0.110;2023-05-10T07:05:05;101132.50;;;17.33;57.28
74615;BME280;63121;51.458;-0.110;2023-05-10T07:07:31;101135.66;;;17.42;57.71
74615;BME280;63121;51.458;-0.110;2023-05-10T07:09:57;101133.94;;;17.15;57.86
74615;BME280;63121;51.458;-0.110;2023-05-10T07:12:23;101140.69;;;16.64;59.11
74615;BME280;63121;51.458;-0.110;2023-05-10T07:14:48;101132.56;;;17.03;58.12
74615;BME280;63121;51.458;-0.110;2023-05-10T07:17:14;101139.25;;;17.12;57.71
74615;BME280;63121;51.458;-0.110;2023-05-10T07:19:39;101136.63;;;17.40;56.78
74615;BME280;63121;51.458;-0.110;2023-05-10T07:22:04;101139.41;;;17.07;56.68
74615;BME280;63121;51.458;-0.110;2023-05-10T07:24:30;101142.63;;;16.87;56.55
74615;BME280;63121;51.458;-0.110;2023-05-10T07:26:56;101141.25;;;17.32;55.87
74615;BME280;63121;51.458;-0.110;2023-05-10T07:29:21;101149.69;;;17.40;54.64
74615;BME280;63121;51.458;-0.110;2023-05-10T07:31:47;101150.66;;;16.79;56.95
74615;BME280;63121;51.458;-0.110;2023-05-10T07:34:12;101147.88;;;17.94;53.97
74615;BME280;63121;51.458;-0.110;2023-05-10T07:36:37;101155.06;;;16.77;56.47
74615;BME280;63121;51.458;-0.110;2023-05-10T07:39:03;101155.72;;;17.14;55.54
74615;BME280;63121;51.458;-0.110;2023-05-10T07:41:28;101157.19;;;17.22;55.70
74615;BME280;63121;51.458;-0.110;2023-05-10T07:43:53;101154.22;;;17.60;54.61
74615;BME280;63121;51.458;-0.110;2023-05-10T07:46:19;101151.16;;;17.74;54.31
74615;BME280;63121;51.458;-0.110;2023-05-10T07:48:45;101146.91;;;18.21;53.25
74615;BME280;63121;51.458;-0.110;2023-05-10T07:51:10;101150.66;;;18.14;53.16
74615;BME280;63121;51.458;-0.110;2023-05-10T07:53:35;101155.25;;;18.07;53.45
74615;BME280;63121;51.458;-0.110;2023-05-10T07:56:23;101149.00;;;19.06;51.77
74615;BME280;63121;51.458;-0.110;2023-05-10T07:58:49;101145.47;;;18.85;53.16
74615;BME280;63121;51.458;-0.110;2023-05-10T08:01:15;101140.00;;;18.91;52.66
74615;BME280;63121;51.458;-0.110;2023-05-10T08:03:40;101153.31;;;18.85;52.89
74615;BME280;63121;51.458;-0.110;2023-05-10T08:06:05;101144.75;;;18.56;53.15
74615;BME280;63121;51.458;-0.110;2023-05-10T08:08:31;101147.22;;;18.37;53.73
74615;BME280;63121;51.458;-0.110;2023-05-10T08:10:56;101165.53;;;17.60;55.01
74615;BME280;63121;51.458;-0.110;2023-05-10T08:13:21;101160.88;;;17.43;55.57
74615;BME280;63121;51.458;-0.110;2023-05-10T08:15:47;101162.91;;;17.87;54.42
74615;BME280;63121;51.458;-0.110;2023-05-10T08:18:13;101173.47;;;17.57;55.61
74615;BME280;63121;51.458;-0.110;2023-05-10T08:20:38;101171.25;;;17.98;54.61
74615;BME280;63121;51.458;-0.110;2023-05-10T08:23:04;101167.84;;;17.96;54.22
74615;BME280;63121;51.458;-0.110;2023-05-10T08:25:29;101162.16;;;18.08;53.98
74615;BME280;63121;51.458;-0.110;2023-05-10T08:27:54;101163.50;;;18.20;53.78
74615;BME280;63121;51.458;-0.110;2023-05-10T08:30:20;101166.63;;;18.77;52.78
74615;BME280;63121;51.458;-0.110;2023-05-10T08:32:45;101170.69;;;18.62;53.17
74615;BME280;63121;51.458;-0.110;2023-05-10T08:35:11;101161.38;;;18.79;52.86
74615;BME280;63121;51.458;-0.110;2023-05-10T08:37:36;101168.56;;;18.00;54.77
74615;BME280;63121;51.458;-0.110;2023-05-10T08:40:01;101167.81;;;18.21;53.73
74615;BME280;63121;51.458;-0.110;2023-05-10T08:42:30;101176.13;;;18.33;53.43
74615;BME280;63121;51.458;-0.110;2023-05-10T08:44:57;101178.31;;;18.45;53.54
74615;BME280;63121;51.458;-0.110;2023-05-10T08:47:23;101181.31;;;18.34;52.25
74615;BME280;63121;51.458;-0.110;2023-05-10T08:49:48;101173.22;;;19.11;50.66
74615;BME280;63121;51.458;-0.110;2023-05-10T08:52:16;101176.56;;;19.15;51.21
74615;BME280;63121;51.458;-0.110;2023-05-10T08:54:42;101180.63;;;19.00;51.92
74615;BME280;63121;51.458;-0.110;2023-05-10T08:57:08;101173.50;;;18.81;52.50
74615;BME280;63121;51.458;-0.110;2023-05-10T08:59:34;101185.88;;;19.00;51.36
74615;BME280;63121;51.458;-0.110;2023-05-10T09:02:00;101178.25;;;19.16;51.00
74615;BME280;63121;51.458;-0.110;2023-05-10T09:04:27;101181.72;;;18.94;51.38
74615;BME280;63121;51.458;-0.110;2023-05-10T09:06:53;101176.69;;;19.54;50.13
74615;BME280;63121;51.458;-0.110;2023-05-10T09:09:20;101186.06;;;19.17;50.59
74615;BME280;63121;51.458;-0.110;2023-05-10T09:11:46;101184.66;;;19.08;51.17
74615;BME280;63121;51.458;-0.110;2023-05-10T09:14:12;101179.81;;;19.64;50.12
74615;BME280;63121;51.458;-0.110;2023-05-10T09:16:39;101177.03;;;19.24;49.82
74615;BME280;63121;51.458;-0.110;2023-05-10T09:19:05;101170.94;;;19.46;49.58
74615;BME280;63121;51.458;-0.110;2023-05-10T09:21:32;101173.81;;;19.60;50.18
74615;BME280;63121;51.458;-0.110;2023-05-10T09:24:03;101174.72;;;20.22;48.40
74615;BME280;63121;51.458;-0.110;2023-05-10T09:26:29;101180.56;;;19.88;49.25
74615;BME280;63121;51.458;-0.110;2023-05-10T09:28:56;101175.81;;;20.37;48.41
74615;BME280;63121;51.458;-0.110;2023-05-10T09:31:22;101181.19;;;19.95;48.70
74615;BME280;63121;51.458;-0.110;2023-05-10T09:33:50;101189.63;;;20.22;48.63
74615;BME280;63121;51.458;-0.110;2023-05-10T09:36:16;101188.22;;;19.50;50.06
74615;BME280;63121;51.458;-0.110;2023-05-10T09:38:51;101189.44;;;19.63;49.89
74615;BME280;63121;51.458;-0.110;2023-05-10T09:41:22;101190.97;;;19.89;49.87
74615;BME280;63121;51.458;-0.110;2023-05-10T09:43:47;101189.84;;;20.76;47.37
74615;BME280;63121;51.458;-0.110;2023-05-10T09:46:14;101190.66;;;19.97;49.29
74615;BME280;63121;51.458;-0.110;2023-05-10T09:48:44;101188.38;;;20.10;48.89
74615;BME280;63121;51.458;-0.110;2023-05-10T09:51:10;101188.44;;;20.48;48.02
74615;BME280;63121;51.458;-0.110;2023-05-10T09:53:36;101192.19;;;20.42;47.80
74615;BME280;63121;51.458;-0.110;2023-05-10T09:56:01;101185.38;;;20.59;47.65
74615;BME280;63121;51.458;-0.110;2023-05-10T09:58:26;101190.25;;;21.04;46.34
74615;BME280;63121;51.458;-0.110;2023-05-10T10:00:52;101193.84;;;20.64;45.81
74615;BME280;63121;51.458;-0.110;2023-05-10T10:03:20;101192.75;;;20.09;47.73
74615;BME280;63121;51.458;-0.110;2023-05-10T10:05:47;101192.69;;;20.50;47.53
74615;BME280;63121;51.458;-0.110;2023-05-10T10:08:14;101195.97;;;20.56;46.56
74615;BME280;63121;51.458;-0.110;2023-05-10T10:10:40;101188.34;;;20.70;46.44
74615;BME280;63121;51.458;-0.110;2023-05-10T10:13:06;101178.47;;;21.13;44.77
74615;BME280;63121;51.458;-0.110;2023-05-10T10:15:33;101195.03;;;20.17;46.30
74615;BME280;63121;51.458;-0.110;2023-05-10T10:17:59;101188.63;;;20.64;45.55
74615;BME280;63121;51.458;-0.110;2023-05-10T10:20:25;101199.91;;;21.40;44.48
74615;BME280;63121;51.458;-0.110;2023-05-10T10:22:51;101193.69;;;20.87;44.84
74615;BME280;63121;51.458;-0.110;2023-05-10T10:25:17;101187.88;;;20.62;45.37
74615;BME280;63121;51.458;-0.110;2023-05-10T10:30:31;101177.34;;;21.36;43.45
74615;BME280;63121;51.458;-0.110;2023-05-10T10:35:54;101179.50;;;20.73;45.75
74615;BME280;63121;51.458;-0.110;2023-05-10T10:38:20;101188.34;;;20.89;44.03
74615;BME280;63121;51.458;-0.110;2023-05-10T10:40:46;101181.19;;;21.65;42.49
74615;BME280;63121;51.458;-0.110;2023-05-10T10:43:28;101178.81;;;21.78;42.79
74615;BME280;63121;51.458;-0.110;2023-05-10T10:46:16;101177.09;;;21.42;42.68
74615;BME280;63121;51.458;-0.110;2023-05-10T10:48:50;101184.03;;;21.43;42.86
74615;BME280;63121;51.458;-0.110;2023-05-10T10:51:37;101177.16;;;21.58;42.10
74615;BME280;63121;51.458;-0.110;2023-05-10T10:54:09;101176.63;;;21.51;41.67
74615;BME280;63121;51.458;-0.110;2023-05-10T10:56:35;101174.03;;;20.96;42.79
74615;BME280;63121;51.458;-0.110;2023-05-10T10:59:01;101171.44;;;21.50;40.41
74615;BME280;63121;51.458;-0.110;2023-05-10T11:01:32;101177.03;;;21.61;40.71
74615;BME280;63121;51.458;-0.110;2023-05-10T11:06:34;101166.34;;;21.82;40.74
74615;BME280;63121;51.458;-0.110;2023-05-10T11:09:07;101166.13;;;22.37;39.27
74615;BME280;63121;51.458;-0.110;2023-05-10T11:11:34;101175.63;;;21.89;39.95
74615;BME280;63121;51.458;-0.110;2023-05-10T11:14:06;101160.97;;;22.01;39.82
74615;BME280;63121;51.458;-0.110;2023-05-10T11:16:41;101155.19;;;21.94;40.11
74615;BME280;63121;51.458;-0.110;2023-05-10T11:19:12;101159.97;;;22.70;38.47
74615;BME280;63121;51.458;-0.110;2023-05-10T11:24:16;101154.78;;;22.84;36.73
74615;BME280;63121;51.458;-0.110;2023-05-10T11:26:42;101157.66;;;23.88;35.91
74615;BME280;63121;51.458;-0.110;2023-05-10T11:29:07;101168.75;;;23.02;35.51
74615;BME280;63121;51.458;-0.110;2023-05-10T11:31:32;101153.00;;;22.85;35.97
74615;BME280;63121;51.458;-0.110;2023-05-10T11:33:59;101157.06;;;23.38;35.77
74615;BME280;63121;51.458;-0.110;2023-05-10T11:36:26;101153.78;;;23.49;35.83
74615;BME280;63121;51.458;-0.110;2023-05-10T11:38:53;101147.03;;;24.32;34.20
74615;BME280;63121;51.458;-0.110;2023-05-10T11:41:19;101158.03;;;23.21;35.44
74615;BME280;63121;51.458;-0.110;2023-05-10T11:43:50;101155.47;;;23.04;36.24
74615;BME280;63121;51.458;-0.110;2023-05-10T11:46:18;101146.19;;;23.59;35.48
74615;BME280;63121;51.458;-0.110;2023-05-10T11:48:45;101134.91;;;23.87;35.14
74615;BME280;63121;51.458;-0.110;2023-05-10T11:51:11;101139.41;;;22.92;36.51
74615;BME280;63121;51.458;-0.110;2023-05-10T11:53:37;101148.66;;;23.00;36.73
74615;BME280;63121;51.458;-0.110;2023-05-10T11:56:07;101148.69;;;23.16;36.68
74615;BME280;63121;51.458;-0.110;2023-05-10T11:58:34;101144.09;;;23.49;36.01
74615;BME280;63121;51.458;-0.110;2023-05-10T12:01:00;101144.31;;;23.91;36.02
74615;BME280;63121;51.458;-0.110;2023-05-10T12:03:26;101144.03;;;23.96;35.47
74615;BME280;63121;51.458;-0.110;2023-05-10T12:05:52;101146.63;;;22.89;35.59
74615;BME280;63121;51.458;-0.110;2023-05-10T12:08:25;101140.16;;;22.47;36.40
74615;BME280;63121;51.458;-0.110;2023-05-10T12:10:52;101141.31;;;23.67;34.69
74615;BME280;63121;51.458;-0.110;2023-05-10T12:13:18;101142.88;;;23.25;35.23
74615;BME280;63121;51.458;-0.110;2023-05-10T12:15:44;101139.91;;;23.61;35.33
74615;BME280;63121;51.458;-0.110;2023-05-10T12:18:11;101143.38;;;24.06;34.00
74615;BME280;63121;51.458;-0.110;2023-05-10T12:20:37;101153.16;;;23.29;34.55
74615;BME280;63121;51.458;-0.110;2023-05-10T12:23:02;101145.25;;;23.60;34.25
74615;BME280;63121;51.458;-0.110;2023-05-10T12:25:33;101149.97;;;24.28;34.13
74615;BME280;63121;51.458;-0.110;2023-05-10T12:28:00;101146.94;;;24.48;34.10
74615;BME280;63121;51.458;-0.110;2023-05-10T12:30:30;101142.50;;;24.34;33.91
74615;BME280;63121;51.458;-0.110;2023-05-10T12:35:25;101142.03;;;24.71;33.60
74615;BME280;63121;51.458;-0.110;2023-05-10T12:37:51;101134.34;;;24.25;34.37
74615;BME280;63121;51.458;-0.110;2023-05-10T12:40:17;101150.16;;;23.96;36.31
74615;BME280;63121;51.458;-0.110;2023-05-10T12:42:42;101144.97;;;23.94;36.08
74615;BME280;63121;51.458;-0.110;2023-05-10T12:45:10;101145.66;;;25.10;34.00
74615;BME280;63121;51.458;-0.110;2023-05-10T12:47:35;101159.06;;;25.74;33.30
74615;BME280;63121;51.458;-0.110;2023-05-10T12:50:02;101147.03;;;24.61;34.88
74615;BME280;63121;51.458;-0.110;2023-05-10T12:52:28;101152.31;;;23.89;35.53
74615;BME280;63121;51.458;-0.110;2023-05-10T12:54:53;101152.31;;;24.47;34.97
74615;BME280;63121;51.458;-0.110;2023-05-10T12:57:21;101149.97;;;23.99;36.29
74615;BME280;63121;51.458;-0.110;2023-05-10T12:59:47;101158.63;;;24.30;34.82
74615;BME280;63121;51.458;-0.110;2023-05-10T13:02:12;101150.88;;;23.84;36.22